Time;durP1;ratioP1;P1;durP2;ratioP2;P2;SDS_P1;SDS_P2;PMS_P1;PMS_P2;Temp;Humidity;BMP_temperature;BMP_pressure;BME280_temperature;BME280_humidity;BME280_pressure;Samples;Min_cycle;Max_cycle;Signal;HPM_P1;HPM_P2
2023/08/25 04:01:51;;;;;;;6.33;2.00;;;21.60;97.30;;;;;;5380794;23;20551;-88
2023/08/25 04:04:17;;;;;;;1.90;1.87;;;21.60;97.30;;;;;;5000201;28;20798;-90
2023/08/25 04:06:42;;;;;;;1.90;1.80;;;21.60;97.30;;;;;;4997772;28;20563;-89
2023/08/25 04:09:08;;;;;;;2.50;1.50;;;21.60;97.30;;;;;;5000233;28;20477;-90
2023/08/25 04:11:35;;;;;;;2.93;1.80;;;21.60;97.30;;;;;;4990417;28;20205;-89
2023/08/25 04:14:01;;;;;;;1.30;1.23;;;21.60;97.30;;;;;;4979971;28;20209;-88
2023/08/25 04:16:26;;;;;;;2.00;1.90;;;21.70;97.30;;;;;;4978263;28;21153;-88
2023/08/25 04:18:52;;;;;;;2.47;1.60;;;21.70;97.30;;;;;;4980872;28;20200;-90
2023/08/25 04:21:18;;;;;;;6.53;2.10;;;21.70;97.30;;;;;;4975258;28;20211;-89
2023/08/25 04:23:43;;;;;;;1.77;1.73;;;21.70;97.30;;;;;;4971582;28;20213;-88
2023/08/25 04:26:09;;;;;;;2.83;2.10;;;21.70;97.30;;;;;;4979547;28;20221;-89
2023/08/25 04:28:34;;;;;;;3.00;1.87;;;21.70;97.30;;;;;;4974634;28;20189;-89
2023/08/25 04:31:01;;;;;;;2.20;1.87;;;21.80;97.30;;;;;;4973768;28;20742;-89
2023/08/25 04:33:27;;;;;;;5.13;2.53;;;21.80;97.30;;;;;;4971771;28;20218;-89
2023/08/25 04:35:52;;;;;;;1.60;1.47;;;21.80;97.30;;;;;;4970395;28;20480;-89
2023/08/25 04:38:18;;;;;;;2.83;1.90;;;21.80;97.30;;;;;;4969334;28;20593;-89
2023/08/25 04:40:43;;;;;;;2.93;1.93;;;21.80;97.30;;;;;;4968212;28;20214;-89
2023/08/25 04:43:09;;;;;;;2.00;1.90;;;21.80;97.30;;;;;;4970408;28;20214;-89
2023/08/25 04:45:34;;;;;;;2.97;2.67;;;21.80;97.30;;;;;;4969975;28;20182;-89
2023/08/25 04:48:00;;;;;;;1.47;1.33;;;21.70;97.30;;;;;;4971465;28;20174;-89
2023/08/25 04:50:25;;;;;;;4.00;2.67;;;21.70;97.30;;;;;;4971299;28;20245;-89
2023/08/25 04:52:51;;;;;;;2.07;1.93;;;21.70;97.30;;;;;;4971764;28;20186;-89
2023/08/25 04:55:17;;;;;;;2.60;1.70;;;21.70;97.30;;;;;;4972688;28;20580;-90
2023/08/25 04:57:43;;;;;;;7.23;2.63;;;21.60;97.30;;;;;;4971184;28;20175;-89
2023/08/25 05:00:09;;;;;;;3.03;2.03;;;21.60;97.30;;;;;;4972744;28;20202;-89
2023/08/25 05:02:35;;;;;;;2.73;1.90;;;21.60;97.30;;;;;;4970412;28;20466;-89
2023/08/25 05:05:03;;;;;;;2.47;1.33;;;21.60;97.30;;;;;;4971949;28;20795;-89
2023/08/25 05:07:29;;;;;;;4.80;2.40;;;21.60;97.30;;;;;;4969921;28;20174;-88
2023/08/25 05:09:54;;;;;;;2.70;1.70;;;21.60;97.30;;;;;;4969934;28;20424;-88
2023/08/25 05:12:20;;;;;;;2.03;1.40;;;21.70;97.30;;;;;;4970189;28;20598;-89
2023/08/25 05:14:45;;;;;;;2.80;2.03;;;21.70;97.30;;;;;;4970504;28;20197;-89
2023/08/25 05:17:11;;;;;;;7.30;2.30;;;21.70;97.30;;;;;;4972064;28;20201;-88
2023/08/25 05:19:37;;;;;;;1.53;1.50;;;21.70;97.30;;;;;;4970966;28;20206;-88
2023/08/25 05:22:02;;;;;;;2.90;2.30;;;21.80;97.30;;;;;;4971031;28;20203;-89
2023/08/25 05:24:28;;;;;;;4.70;2.60;;;21.80;97.30;;;;;;4971028;28;20197;-88
2023/08/25 05:26:54;;;;;;;3.40;1.67;;;21.90;97.30;;;;;;4970740;28;20187;-89
2023/08/25 05:29:25;;;;;;;1.80;1.70;;;21.90;97.30;;;;;;4970825;28;20417;-89
2023/08/25 05:31:52;;;;;;;3.17;2.20;;;21.90;97.30;;;;;;4964058;28;20457;-89
2023/08/25 05:34:17;;;;;;;2.07;1.80;;;22.00;97.30;;;;;;4971793;28;20468;-90
2023/08/25 05:36:43;;;;;;;2.90;2.33;;;22.00;97.30;;;;;;4971306;28;20728;-90
2023/08/25 05:39:09;;;;;;;1.70;1.50;;;22.00;97.30;;;;;;4971218;28;20222;-90
2023/08/25 05:41:35;;;;;;;16.13;1.90;;;22.10;97.30;;;;;;4971261;28;20975;-88
2023/08/25 05:44:01;;;;;;;2.80;2.20;;;22.10;97.30;;;;;;4971413;28;20631;-90
2023/08/25 05:46:29;;;;;;;2.30;1.97;;;22.10;97.30;;;;;;4971322;28;20454;-90
2023/08/25 05:48:55;;;;;;;4.10;2.60;;;22.20;97.30;;;;;;4971172;28;20426;-90
2023/08/25 05:51:20;;;;;;;3.33;2.23;;;22.20;97.30;;;;;;4970404;28;20512;-88
2023/08/25 05:53:46;;;;;;;4.43;1.90;;;22.30;97.30;;;;;;4971228;28;20244;-90
2023/08/25 05:56:11;;;;;;;1.93;1.83;;;22.30;97.30;;;;;;4970063;28;20225;-88
2023/08/25 05:58:37;;;;;;;4.00;2.80;;;22.40;97.30;;;;;;4970444;28;20264;-88
2023/08/25 06:01:02;;;;;;;3.27;1.97;;;22.40;97.30;;;;;;4971886;28;20257;-88
2023/08/25 06:03:28;;;;;;;4.63;2.17;;;22.40;97.30;;;;;;4970696;28;20202;-88
2023/08/25 06:05:53;;;;;;;2.97;2.43;;;22.50;97.30;;;;;;4970696;28;20221;-89
2023/08/25 06:08:22;;;;;;;2.83;2.50;;;22.50;97.30;;;;;;4970794;28;20193;-89
2023/08/25 06:10:52;;;;;;;5.30;2.93;;;22.60;97.30;;;;;;4970571;28;20297;-88
2023/08/25 06:13:17;;;;;;;3.33;1.80;;;22.60;97.30;;;;;;4970521;28;20429;-89
2023/08/25 06:15:43;;;;;;;2.60;2.40;;;22.60;97.30;;;;;;4970779;28;20430;-89
2023/08/25 06:18:08;;;;;;;1.70;1.43;;;22.70;97.30;;;;;;4970642;28;20179;-89
2023/08/25 06:20:35;;;;;;;3.03;2.07;;;22.70;97.30;;;;;;4970498;28;20213;-89
2023/08/25 06:23:00;;;;;;;3.40;2.17;;;22.80;97.30;;;;;;4972145;28;20329;-89
2023/08/25 06:25:26;;;;;;;2.70;2.50;;;22.80;97.30;;;;;;4970896;28;20485;-88
2023/08/25 06:27:52;;;;;;;2.80;2.13;;;22.90;97.30;;;;;;4970730;28;20595;-88
2023/08/25 06:30:17;;;;;;;2.40;2.00;;;22.90;97.30;;;;;;4970563;28;20190;-90
2023/08/25 06:32:43;;;;;;;4.63;2.33;;;23.00;97.30;;;;;;4971712;28;20683;-88
2023/08/25 06:35:12;;;;;;;5.13;2.30;;;23.00;97.30;;;;;;4970443;28;20194;-89
2023/08/25 06:37:38;;;;;;;2.37;2.17;;;23.00;97.30;;;;;;4970533;28;20951;-89
2023/08/25 06:40:08;;;;;;;2.30;2.10;;;23.10;97.30;;;;;;4970238;28;20465;-88
2023/08/25 06:42:34;;;;;;;2.23;2.10;;;23.20;97.30;;;;;;4970366;28;20848;-89
2023/08/25 06:45:00;;;;;;;4.13;1.73;;;23.20;97.30;;;;;;4970417;28;20422;-88
2023/08/25 06:47:30;;;;;;;2.07;1.70;;;23.30;97.30;;;;;;4970974;28;20841;-88
2023/08/25 06:49:55;;;;;;;1.97;1.77;;;23.40;97.30;;;;;;4970437;28;20434;-88
2023/08/25 06:52:22;;;;;;;1.77;1.70;;;23.40;97.30;;;;;;4977034;28;20549;-89
2023/08/25 06:54:47;;;;;;;2.40;2.20;;;23.40;97.30;;;;;;4970223;28;20191;-89
2023/08/25 06:57:13;;;;;;;2.37;2.03;;;23.50;97.30;;;;;;4969973;28;20430;-88
2023/08/25 06:59:38;;;;;;;3.30;1.80;;;23.60;97.30;;;;;;4969890;28;20479;-89
2023/08/25 07:02:04;;;;;;;2.77;2.00;;;23.60;97.30;;;;;;4971781;28;20720;-88
2023/08/25 07:04:30;;;;;;;2.27;2.07;;;23.70;97.30;;;;;;4973783;28;20187;-88
2023/08/25 07:06:56;;;;;;;2.60;1.93;;;23.80;97.30;;;;;;4966557;28;20182;-88
2023/08/25 07:09:21;;;;;;;2.00;1.80;;;23.80;97.30;;;;;;4975846;28;20436;-88
2023/08/25 07:11:47;;;;;;;1.63;1.53;;;23.90;97.30;;;;;;4973618;28;20245;-88
2023/08/25 07:14:13;;;;;;;3.83;1.90;;;24.00;97.30;;;;;;4979673;28;20186;-87
2023/08/25 07:16:39;;;;;;;8.97;1.67;;;24.00;97.30;;;;;;4976030;28;20573;-88
2023/08/25 07:19:04;;;;;;;6.10;1.67;;;24.10;97.30;;;;;;4972458;28;20189;-88
2023/08/25 07:21:30;;;;;;;2.80;2.23;;;24.10;97.30;;;;;;4974041;28;20680;-87
2023/08/25 07:23:55;;;;;;;1.80;1.60;;;24.20;97.30;;;;;;4973712;28;20320;-88
2023/08/25 07:26:21;;;;;;;1.87;1.77;;;24.20;97.30;;;;;;4973781;28;20187;-88
2023/08/25 07:28:47;;;;;;;1.90;1.57;;;24.20;97.30;;;;;;4973224;28;20186;-88
2023/08/25 07:31:13;;;;;;;2.10;1.70;;;24.30;97.30;;;;;;4973387;28;20433;-88
2023/08/25 07:33:39;;;;;;;3.60;2.10;;;24.40;97.30;;;;;;4973258;28;20268;-89
2023/08/25 07:36:05;;;;;;;1.80;1.40;;;24.40;97.30;;;;;;4973662;28;20473;-88
2023/08/25 07:38:30;;;;;;;2.60;1.67;;;24.50;97.30;;;;;;4973485;28;20434;-89
2023/08/25 07:40:56;;;;;;;1.83;1.77;;;24.60;97.30;;;;;;4973385;28;20297;-89
2023/08/25 07:43:22;;;;;;;2.70;1.57;;;24.60;97.30;;;;;;4973407;28;20277;-89
2023/08/25 07:45:48;;;;;;;3.47;1.70;;;24.70;97.30;;;;;;4973296;28;20274;-88
2023/08/25 07:48:13;;;;;;;2.23;1.90;;;24.80;97.30;;;;;;4974712;28;20183;-89
2023/08/25 07:50:39;;;;;;;2.17;2.00;;;24.80;97.30;;;;;;4974301;28;20194;-88
2023/08/25 07:53:05;;;;;;;2.60;1.80;;;24.90;97.30;;;;;;4980969;28;20190;-88
2023/08/25 07:55:30;;;;;;;3.90;2.87;;;25.00;97.30;;;;;;4973345;28;20185;-87
2023/08/25 07:57:57;;;;;;;2.20;1.90;;;25.00;97.30;;;;;;4973279;28;20731;-89
2023/08/25 08:00:23;;;;;;;1.80;1.63;;;25.00;97.30;;;;;;4973380;28;20198;-88
2023/08/25 08:02:50;;;;;;;1.43;1.40;;;25.00;97.30;;;;;;4973155;28;20437;-88
2023/08/25 08:05:17;;;;;;;1.90;1.80;;;25.10;97.30;;;;;;4973046;28;20225;-87
2023/08/25 08:07:44;;;;;;;2.23;2.03;;;25.10;97.30;;;;;;4973293;28;20426;-89
2023/08/25 08:10:10;;;;;;;1.90;1.23;;;25.20;97.30;;;;;;4973032;28;20433;-88
2023/08/25 08:12:36;;;;;;;1.73;1.70;;;25.20;97.30;;;;;;4972752;28;20446;-87
2023/08/25 08:15:04;;;;;;;7.07;3.07;;;25.30;97.30;;;;;;4972588;28;20429;-87
2023/08/25 08:17:30;;;;;;;4.50;1.90;;;25.30;97.30;;;;;;4972801;28;20189;-88
2023/08/25 08:19:55;;;;;;;1.50;1.50;;;25.30;97.30;;;;;;4973659;28;20458;-89
2023/08/25 08:22:21;;;;;;;2.00;1.90;;;25.30;97.30;;;;;;4972764;28;20203;-88
2023/08/25 08:24:48;;;;;;;3.03;2.10;;;25.40;97.30;;;;;;4974113;28;20193;-88
2023/08/25 08:27:15;;;;;;;4.10;1.70;;;25.50;97.30;;;;;;4969751;28;20182;-88
2023/08/25 08:29:41;;;;;;;4.73;1.77;;;25.60;97.30;;;;;;4972275;28;20513;-89
2023/08/25 08:32:07;;;;;;;1.77;1.77;;;25.70;97.30;;;;;;4972400;28;20481;-88
2023/08/25 08:34:33;;;;;;;3.33;2.47;;;25.70;97.00;;;;;;4979364;28;20461;-88
2023/08/25 08:36:58;;;;;;;1.77;1.73;;;25.70;97.30;;;;;;4972441;28;20390;-89
2023/08/25 08:39:24;;;;;;;2.43;1.77;;;25.80;97.30;;;;;;4971791;28;20214;-88
2023/08/25 08:41:52;;;;;;;2.50;1.70;;;25.80;97.30;;;;;;4971991;28;20209;-89
2023/08/25 08:44:19;;;;;;;2.33;2.13;;;25.80;97.30;;;;;;4973495;28;20226;-88
2023/08/25 08:46:47;;;;;;;2.40;1.80;;;25.80;97.10;;;;;;4972359;28;20940;-88
2023/08/25 08:49:12;;;;;;;2.23;2.03;;;25.80;97.30;;;;;;4972546;28;20422;-89
2023/08/25 08:51:41;;;;;;;2.83;1.90;;;25.80;97.10;;;;;;4980202;28;20970;-88
2023/08/25 08:54:07;;;;;;;4.10;1.70;;;25.80;97.30;;;;;;4972313;28;20182;-89
2023/08/25 08:56:34;;;;;;;1.83;1.37;;;25.80;97.30;;;;;;4973776;28;20429;-89
2023/08/25 08:58:59;;;;;;;1.10;1.10;;;25.80;97.10;;;;;;4971903;28;20434;-88
2023/08/25 09:01:26;;;;;;;2.63;2.43;;;25.90;97.20;;;;;;4971601;28;20536;-88
2023/08/25 09:03:53;;;;;;;2.30;1.77;;;25.90;97.30;;;;;;4973124;28;20183;-88
2023/08/25 09:06:19;;;;;;;2.33;2.17;;;26.00;96.80;;;;;;4972467;28;20453;-89
2023/08/25 09:08:47;;;;;;;2.60;1.70;;;26.00;96.90;;;;;;4971883;28;20953;-88
2023/08/25 09:11:16;;;;;;;1.80;1.70;;;26.00;96.80;;;;;;4972017;28;20213;-89
2023/08/25 09:13:53;;;;;;;3.53;2.70;;;26.00;96.60;;;;;;4971709;28;20936;-89
2023/08/25 09:16:21;;;;;;;7.03;2.27;;;26.10;96.50;;;;;;4971886;28;20425;-88
2023/08/25 09:18:46;;;;;;;1.83;1.73;;;26.10;96.90;;;;;;4973155;28;20951;-88
2023/08/25 09:21:17;;;;;;;2.40;2.20;;;26.10;96.50;;;;;;4971311;28;20500;-89
2023/08/25 09:23:58;;;;;;;1.33;1.30;;;26.10;97.30;;;;;;4971650;28;20183;-88
2023/08/25 09:26:24;;;;;;;1.43;1.30;;;26.10;97.30;;;;;;4970936;28;20508;-89
2023/08/25 09:28:54;;;;;;;3.93;3.10;;;26.10;96.90;;;;;;4972819;28;20514;-88
2023/08/25 09:31:24;;;;;;;3.63;1.73;;;26.10;96.10;;;;;;4971237;28;20453;-89
2023/08/25 09:33:51;;;;;;;1.93;1.53;;;26.10;96.70;;;;;;4971222;28;20429;-88
2023/08/25 09:36:17;;;;;;;3.73;1.60;;;26.10;96.30;;;;;;4971328;28;20796;-89
2023/08/25 09:38:45;;;;;;;2.50;2.03;;;26.10;96.50;;;;;;4972753;28;20426;-88
2023/08/25 09:41:11;;;;;;;6.20;1.70;;;26.10;96.70;;;;;;4971073;28;20465;-87
2023/08/25 09:43:39;;;;;;;2.70;1.97;;;26.10;96.80;;;;;;4971393;28;20489;-89
2023/08/25 09:46:08;;;;;;;2.90;2.30;;;26.10;96.70;;;;;;4970609;28;21023;-88
2023/08/25 09:48:35;;;;;;;2.03;1.53;;;26.10;97.00;;;;;;4970782;28;20425;-87
2023/08/25 09:51:01;;;;;;;1.50;1.40;;;26.10;96.70;;;;;;4969925;28;20825;-88
2023/08/25 09:53:31;;;;;;;3.50;2.17;;;26.10;96.90;;;;;;4971954;28;20421;-88
2023/08/25 09:56:02;;;;;;;3.80;2.20;;;26.10;97.30;;;;;;4970670;28;20426;-89
2023/08/25 09:58:28;;;;;;;1.77;1.63;;;26.10;97.30;;;;;;4971248;28;20421;-88
2023/08/25 10:00:54;;;;;;;2.33;2.13;;;26.10;96.00;;;;;;4970404;28;20520;-89
2023/08/25 10:03:20;;;;;;;4.00;3.53;;;26.10;96.70;;;;;;4971035;28;20424;-88
2023/08/25 10:05:46;;;;;;;2.87;2.43;;;26.10;96.60;;;;;;4970755;28;20426;-89
2023/08/25 10:08:12;;;;;;;4.40;2.87;;;26.10;96.60;;;;;;4971113;28;20413;-88
2023/08/25 10:10:39;;;;;;;2.03;1.40;;;26.10;96.10;;;;;;4970749;28;20433;-88
2023/08/25 10:13:06;;;;;;;4.23;1.83;;;26.10;96.20;;;;;;4971287;28;20190;-89
2023/08/25 10:15:33;;;;;;;2.50;1.37;;;26.10;96.90;;;;;;4972298;28;20421;-89
2023/08/25 10:18:06;;;;;;;2.33;2.17;;;26.00;96.90;;;;;;4970735;28;20445;-88
2023/08/25 10:20:37;;;;;;;3.60;2.30;;;26.10;97.10;;;;;;4972319;28;20453;-90
2023/08/25 10:23:09;;;;;;;2.50;2.20;;;26.10;97.20;;;;;;4970795;28;20434;-89
2023/08/25 10:25:35;;;;;;;1.63;1.60;;;26.10;97.30;;;;;;4970510;28;20485;-89
2023/08/25 10:28:03;;;;;;;1.40;1.30;;;26.10;97.30;;;;;;4970788;28;20476;-90
2023/08/25 10:30:30;;;;;;;1.20;1.10;;;26.20;97.30;;;;;;4970385;28;20430;-89
2023/08/25 10:33:08;;;;;;;2.83;1.63;;;26.10;97.30;;;;;;4970701;28;20522;-90
2023/08/25 10:35:44;;;;;;;9.60;2.40;;;26.20;97.10;;;;;;4970675;28;20430;-89
2023/08/25 10:38:19;;;;;;;2.97;2.77;;;26.20;97.30;;;;;;4974009;28;20425;-90
2023/08/25 10:40:52;;;;;;;3.17;1.83;;;26.10;97.20;;;;;;4974229;28;21076;-89
2023/08/25 10:43:32;;;;;;;1.63;1.37;;;26.10;96.90;;;;;;4974645;28;20859;-89
2023/08/25 10:46:01;;;;;;;2.17;1.97;;;26.10;96.90;;;;;;4974241;28;20435;-90
2023/08/25 10:48:26;;;;;;;3.93;1.90;;;26.10;97.00;;;;;;4974845;28;20464;-89
2023/08/25 10:50:53;;;;;;;2.93;2.20;;;26.20;96.60;;;;;;4974213;28;20449;-89
2023/08/25 10:53:37;;;;;;;3.13;1.97;;;26.20;96.00;;;;;;4976107;28;20652;-89
2023/08/25 10:56:16;;;;;;;2.23;2.03;;;26.20;96.60;;;;;;4974268;28;20500;-89
2023/08/25 10:58:42;;;;;;;3.97;2.00;;;26.30;96.60;;;;;;4981300;28;20435;-90
2023/08/25 11:01:08;;;;;;;3.07;1.37;;;26.30;96.30;;;;;;4976689;28;20481;-90
2023/08/25 11:03:48;;;;;;;3.70;1.80;;;26.40;96.10;;;;;;4973570;28;20425;-89
2023/08/25 11:06:37;;;;;;;3.13;1.70;;;26.40;95.80;;;;;;4973544;28;20552;-89
2023/08/25 11:09:03;;;;;;;2.73;1.93;;;26.40;96.20;;;;;;4973905;28;20445;-89
2023/08/25 11:11:29;;;;;;;3.33;1.87;;;26.30;94.90;;;;;;4974025;28;20468;-89
2023/08/25 11:13:56;;;;;;;1.30;1.17;;;26.30;95.10;;;;;;4974336;28;20187;-89
2023/08/25 11:16:21;;;;;;;3.30;2.70;;;26.40;96.30;;;;;;4975265;28;20414;-89
2023/08/25 11:18:47;;;;;;;1.77;1.47;;;26.40;96.30;;;;;;4974337;28;20422;-89
2023/08/25 11:21:14;;;;;;;2.17;1.63;;;26.40;95.50;;;;;;4973775;28;20202;-89
2023/08/25 11:23:44;;;;;;;1.70;1.60;;;26.40;96.00;;;;;;4973960;28;20707;-89
2023/08/25 11:26:17;;;;;;;3.03;1.70;;;26.40;95.50;;;;;;4977716;28;20492;-89
2023/08/25 11:28:46;;;;;;;2.23;1.50;;;26.40;95.20;;;;;;4982782;28;20428;-89
2023/08/25 11:31:12;;;;;;;3.17;1.47;;;26.50;96.40;;;;;;4982018;28;20454;-89
2023/08/25 11:33:38;;;;;;;1.73;1.60;;;26.50;96.00;;;;;;4981425;28;21011;-89
2023/08/25 11:36:04;;;;;;;3.23;1.90;;;26.50;96.00;;;;;;4981730;28;20472;-89
2023/08/25 11:38:33;;;;;;;1.87;1.80;;;26.50;95.70;;;;;;4980577;28;20182;-89
2023/08/25 11:40:58;;;;;;;2.00;1.90;;;26.50;95.80;;;;;;4981875;28;20472;-88
2023/08/25 11:43:36;;;;;;;1.87;1.70;;;26.50;95.40;;;;;;4980095;28;20426;-89
2023/08/25 11:46:04;;;;;;;3.67;1.80;;;26.50;95.10;;;;;;4973938;28;20423;-89
2023/08/25 11:48:33;;;;;;;1.40;1.40;;;26.50;94.30;;;;;;4973336;28;20453;-89
2023/08/25 11:50:59;;;;;;;2.07;1.60;;;26.50;94.20;;;;;;4973355;28;20512;-89
2023/08/25 11:53:24;;;;;;;1.93;1.70;;;26.50;94.20;;;;;;4973170;28;20509;-89
2023/08/25 11:56:00;;;;;;;2.40;1.70;;;26.50;93.50;;;;;;4973220;28;20194;-89
2023/08/25 11:58:32;;;;;;;1.80;1.70;;;26.50;94.10;;;;;;4973236;28;20182;-89
2023/08/25 12:01:06;;;;;;;2.30;1.40;;;26.50;94.60;;;;;;4973185;28;20714;-89
2023/08/25 12:03:31;;;;;;;6.20;1.90;;;26.60;94.30;;;;;;4973427;28;20418;-89
2023/08/25 12:05:59;;;;;;;1.40;1.30;;;26.60;93.90;;;;;;4972822;28;20776;-90
2023/08/25 12:08:25;;;;;;;3.53;2.03;;;26.60;94.90;;;;;;4973040;28;20179;-89
2023/08/25 12:10:53;;;;;;;1.47;1.37;;;26.70;94.80;;;;;;4973112;28;21010;-90
2023/08/25 12:13:29;;;;;;;2.10;1.63;;;26.70;93.80;;;;;;4965111;28;20186;-88
2023/08/25 12:15:55;;;;;;;2.77;2.07;;;26.70;93.40;;;;;;4973003;28;20522;-89
2023/08/25 12:18:22;;;;;;;1.80;1.30;;;26.70;92.30;;;;;;4972611;28;20488;-90
2023/08/25 12:20:48;;;;;;;2.03;1.50;;;26.70;92.50;;;;;;4973058;28;20971;-90
2023/08/25 12:23:14;;;;;;;2.63;2.43;;;26.70;92.60;;;;;;4972653;28;20865;-89
2023/08/25 12:25:43;;;;;;;1.20;1.10;;;26.70;92.70;;;;;;4971618;28;20417;-91
2023/08/25 12:28:10;;;;;;;1.00;0.90;;;26.70;92.40;;;;;;4972676;28;20422;-89
2023/08/25 12:30:37;;;;;;;1.57;1.20;;;26.80;92.80;;;;;;4972464;28;20799;-90
2023/08/25 12:33:03;;;;;;;1.73;1.47;;;26.80;92.20;;;;;;4972315;28;20430;-90
2023/08/25 12:35:29;;;;;;;3.93;1.97;;;26.80;91.90;;;;;;4972555;28;20437;-89
2023/08/25 12:37:54;;;;;;;2.10;1.37;;;26.80;92.50;;;;;;4972620;28;20426;-87
2023/08/25 12:40:20;;;;;;;2.50;2.30;;;26.80;92.80;;;;;;4972630;28;20553;-89
2023/08/25 12:42:51;;;;;;;2.10;1.50;;;26.90;92.70;;;;;;4972432;28;20223;-89
2023/08/25 12:45:18;;;;;;;2.03;1.90;;;26.90;92.80;;;;;;4972637;28;20652;-89
2023/08/25 12:47:44;;;;;;;1.10;1.10;;;26.90;93.30;;;;;;4972309;28;20422;-89
2023/08/25 12:50:09;;;;;;;2.20;0.97;;;26.90;92.00;;;;;;4972081;28;20449;-90
2023/08/25 12:52:36;;;;;;;1.50;1.40;;;26.90;92.90;;;;;;4974159;28;20230;-89
2023/08/25 12:55:03;;;;;;;1.57;1.47;;;27.00;92.50;;;;;;4972152;28;20190;-89
2023/08/25 12:57:29;;;;;;;1.73;1.20;;;27.10;93.50;;;;;;4972013;28;20465;-87
2023/08/25 12:59:54;;;;;;;1.43;1.30;;;27.20;93.30;;;;;;4972157;28;20493;-89
2023/08/25 13:02:20;;;;;;;3.03;1.33;;;27.40;94.10;;;;;;4972894;28;20254;-90
2023/08/25 13:04:45;;;;;;;3.40;1.27;;;27.50;93.20;;;;;;4971885;28;20550;-90
2023/08/25 13:07:13;;;;;;;1.97;1.90;;;27.70;93.20;;;;;;4971792;28;20196;-89
2023/08/25 13:09:38;;;;;;;2.70;1.90;;;27.90;93.10;;;;;;4973139;28;20680;-91
2023/08/25 13:12:04;;;;;;;1.77;1.40;;;28.10;92.50;;;;;;4970962;28;20492;-90
2023/08/25 13:14:30;;;;;;;4.07;2.03;;;28.20;91.90;;;;;;4970489;28;20175;-90
2023/08/25 13:16:55;;;;;;;2.43;1.80;;;28.30;91.50;;;;;;4972113;28;20429;-87
2023/08/25 13:19:21;;;;;;;1.60;1.50;;;28.40;91.30;;;;;;4974100;28;20194;-88
2023/08/25 13:21:46;;;;;;;2.00;1.50;;;28.40;90.60;;;;;;4973821;28;20205;-87
2023/08/25 13:24:12;;;;;;;9.20;1.37;;;28.40;90.90;;;;;;4974593;28;20182;-88
2023/08/25 13:26:37;;;;;;;1.73;1.63;;;28.40;91.50;;;;;;4967738;28;20650;-88
2023/08/25 13:29:03;;;;;;;1.40;0.97;;;28.50;91.60;;;;;;4974311;28;20711;-89
2023/08/25 13:31:30;;;;;;;1.57;1.07;;;28.60;91.10;;;;;;4975759;28;20742;-88
2023/08/25 13:33:57;;;;;;;1.93;1.20;;;28.60;90.50;;;;;;4978513;28;20458;-88
2023/08/25 13:36:23;;;;;;;2.10;1.60;;;28.70;89.70;;;;;;4974430;28;20441;-89
2023/08/25 13:38:48;;;;;;;3.60;2.20;;;28.60;88.30;;;;;;4972190;28;20746;-88
2023/08/25 13:41:14;;;;;;;3.80;2.10;;;28.50;88.30;;;;;;4969533;28;20237;-89
2023/08/25 13:43:40;;;;;;;2.10;1.30;;;28.40;89.50;;;;;;4974267;28;20548;-88
2023/08/25 13:46:06;;;;;;;1.33;1.30;;;28.30;89.40;;;;;;4973219;28;20174;-88
2023/08/25 13:48:32;;;;;;;2.10;1.73;;;28.20;89.10;;;;;;4970431;28;20194;-88
2023/08/25 13:50:58;;;;;;;1.57;1.57;;;28.20;89.50;;;;;;4973705;28;20438;-89
2023/08/25 13:53:23;;;;;;;2.03;1.73;;;28.10;89.50;;;;;;4975008;28;20205;-87
2023/08/25 13:55:49;;;;;;;2.80;1.60;;;28.00;90.00;;;;;;4972923;28;20512;-88
2023/08/25 13:58:15;;;;;;;2.63;1.97;;;27.80;88.90;;;;;;4974596;28;20217;-88
2023/08/25 14:00:41;;;;;;;1.47;1.43;;;27.80;89.40;;;;;;4971527;28;20501;-88
2023/08/25 14:03:06;;;;;;;2.13;1.50;;;27.70;89.80;;;;;;4974297;28;20244;-86
2023/08/25 14:05:32;;;;;;;1.57;1.47;;;27.70;90.10;;;;;;4971417;28;20194;-89
2023/08/25 14:07:57;;;;;;;1.63;1.30;;;27.60;90.60;;;;;;4979483;28;20184;-89
2023/08/25 14:10:25;;;;;;;2.60;1.40;;;27.60;89.80;;;;;;4972272;28;20211;-89
2023/08/25 14:12:51;;;;;;;2.20;1.47;;;27.60;90.40;;;;;;4971930;28;20232;-88
2023/08/25 14:15:17;;;;;;;2.70;1.73;;;27.60;90.70;;;;;;4972109;28;20461;-89
2023/08/25 14:17:42;;;;;;;1.00;0.90;;;27.70;90.40;;;;;;4972302;28;20512;-88
2023/08/25 14:20:09;;;;;;;3.43;1.60;;;27.70;90.20;;;;;;4973754;28;20301;-89
2023/08/25 14:22:34;;;;;;;1.33;1.30;;;27.80;90.50;;;;;;4975576;28;20264;-88
2023/08/25 14:25:00;;;;;;;1.80;1.70;;;27.80;89.30;;;;;;4982334;28;20413;-87
2023/08/25 14:27:26;;;;;;;2.93;1.97;;;27.90;90.00;;;;;;4975082;28;20549;-87
2023/08/25 14:29:52;;;;;;;1.40;1.33;;;28.10;90.70;;;;;;4968638;28;20692;-88
2023/08/25 14:32:18;;;;;;;2.50;1.77;;;28.40;91.80;;;;;;4969373;28;20264;-89
2023/08/25 14:34:43;;;;;;;3.17;1.83;;;28.70;89.40;;;;;;4968216;28;20532;-88
2023/08/25 14:37:09;;;;;;;2.43;1.53;;;29.00;88.70;;;;;;4968235;28;20182;-88
2023/08/25 14:39:35;;;;;;;1.37;1.27;;;29.20;87.30;;;;;;4967815;28;20182;-87
2023/08/25 14:42:00;;;;;;;2.70;1.93;;;29.30;86.40;;;;;;4968151;28;20209;-88
2023/08/25 14:44:26;;;;;;;1.60;1.33;;;29.30;87.10;;;;;;4966941;28;20183;-90
2023/08/25 14:46:52;;;;;;;2.57;1.50;;;29.10;86.20;;;;;;4969019;28;20210;-89
2023/08/25 14:49:18;;;;;;;2.83;1.83;;;29.00;86.70;;;;;;4967475;28;20460;-86
2023/08/25 14:51:43;;;;;;;1.63;1.40;;;28.80;87.70;;;;;;4977073;28;20209;-89
2023/08/25 14:54:09;;;;;;;1.57;1.50;;;28.70;88.80;;;;;;4971553;28;20187;-89
2023/08/25 14:56:35;;;;;;;2.20;1.83;;;28.50;88.50;;;;;;4964952;28;20186;-88
2023/08/25 14:59:01;;;;;;;1.80;1.23;;;28.40;88.50;;;;;;4965539;28;20190;-90
2023/08/25 15:01:26;;;;;;;1.63;1.40;;;28.30;88.80;;;;;;4970291;28;20701;-90
2023/08/25 15:03:52;;;;;;;2.63;1.77;;;28.20;89.20;;;;;;4966292;28;20513;-90
2023/08/25 15:06:18;;;;;;;3.43;1.40;;;28.10;89.30;;;;;;4969420;28;20638;-90
2023/08/25 15:08:44;;;;;;;1.97;1.87;;;28.00;89.70;;;;;;4969877;28;20610;-88
2023/08/25 15:11:10;;;;;;;1.53;1.20;;;28.00;89.60;;;;;;4970172;28;20214;-90
2023/08/25 15:13:35;;;;;;;1.37;1.13;;;28.00;89.60;;;;;;4982087;28;20488;-88
2023/08/25 15:16:01;;;;;;;2.43;2.00;;;28.00;90.10;;;;;;4975964;28;20197;-89
2023/08/25 15:18:27;;;;;;;5.30;2.00;;;27.90;90.10;;;;;;4987909;28;20193;-90
2023/08/25 15:21:04;;;;;;;1.10;1.00;;;27.90;89.80;;;;;;4990363;28;20353;-87
2023/08/25 15:23:30;;;;;;;2.63;2.43;;;27.90;90.40;;;;;;4983351;28;20423;-89
2023/08/25 15:25:57;;;;;;;2.40;1.50;;;27.90;91.20;;;;;;4994163;28;20425;-89
2023/08/25 15:28:27;;;;;;;1.00;1.00;;;27.90;91.20;;;;;;4982468;28;20988;-90
2023/08/25 15:31:25;;;;;;;1.30;1.30;;;27.90;90.20;;;;;;4973970;28;20467;-87
2023/08/25 15:33:51;;;;;;;1.20;1.10;;;27.90;91.30;;;;;;4959509;28;20995;-88
2023/08/25 15:36:18;;;;;;;3.10;1.53;;;28.00;90.80;;;;;;4976121;28;20569;-88
2023/08/25 15:38:45;;;;;;;1.33;1.10;;;28.20;90.90;;;;;;4976156;28;20186;-87
2023/08/25 15:41:11;;;;;;;2.60;1.63;;;28.30;89.30;;;;;;4977891;28;20477;-89
2023/08/25 15:43:38;;;;;;;2.10;2.00;;;28.40;90.10;;;;;;4976381;28;20481;-85
2023/08/25 15:46:04;;;;;;;1.20;1.10;;;28.50;90.90;;;;;;4982161;28;21006;-88
2023/08/25 15:48:30;;;;;;;1.40;1.30;;;28.60;91.70;;;;;;4978959;28;20426;-87
2023/08/25 15:50:56;;;;;;;1.70;1.60;;;28.80;90.80;;;;;;4978992;28;20460;-88
2023/08/25 15:53:23;;;;;;;1.53;1.10;;;29.10;90.50;;;;;;4983573;28;20190;-86
2023/08/25 15:55:49;;;;;;;1.47;1.30;;;29.20;90.10;;;;;;4974216;28;20456;-89
2023/08/25 15:58:16;;;;;;;2.63;1.30;;;29.20;88.80;;;;;;4972838;28;20465;-89
2023/08/25 16:00:42;;;;;;;2.03;1.30;;;29.20;89.10;;;;;;4975852;28;20801;-89
2023/08/25 16:03:08;;;;;;;1.73;1.50;;;29.20;88.40;;;;;;4978391;28;20948;-88
2023/08/25 16:05:34;;;;;;;1.53;1.47;;;29.10;88.30;;;;;;4975905;28;20465;-87
2023/08/25 16:07:59;;;;;;;1.73;1.60;;;29.00;89.70;;;;;;4967872;28;20222;-86
2023/08/25 16:10:25;;;;;;;1.87;1.77;;;28.80;89.80;;;;;;4975672;28;20649;-87
2023/08/25 16:12:56;;;;;;;6.30;1.50;;;28.70;89.80;;;;;;4979435;28;20190;-87
2023/08/25 16:15:28;;;;;;;1.23;1.13;;;28.50;90.70;;;;;;4971682;28;20285;-88
2023/08/25 16:17:54;;;;;;;1.20;1.10;;;28.40;91.20;;;;;;4970599;28;20426;-86
2023/08/25 16:20:20;;;;;;;3.63;1.37;;;28.30;91.50;;;;;;4971395;28;20468;-86
2023/08/25 16:22:45;;;;;;;1.13;1.10;;;28.20;92.50;;;;;;4973494;28;20828;-88
2023/08/25 16:25:11;;;;;;;4.73;1.70;;;28.00;92.10;;;;;;4980502;28;20672;-87
2023/08/25 16:27:37;;;;;;;2.30;1.73;;;28.00;91.50;;;;;;5011609;23;20238;-68
2023/08/25 16:30:03;;;;;;;1.17;0.90;;;27.80;92.20;;;;;;4973306;28;20178;-68
2023/08/25 16:32:29;;;;;;;2.43;1.80;;;27.80;91.70;;;;;;4965254;28;20210;-68
2023/08/25 16:34:54;;;;;;;1.30;1.20;;;27.70;91.40;;;;;;4951732;28;20462;-69
2023/08/25 16:37:20;;;;;;;2.50;2.03;;;27.60;91.80;;;;;;4950890;29;20194;-68
2023/08/25 16:39:47;;;;;;;1.23;1.13;;;27.60;91.70;;;;;;4954762;28;20206;-68
2023/08/25 16:42:13;;;;;;;1.23;1.03;;;27.50;91.60;;;;;;4952470;28;20206;-68
2023/08/25 16:44:38;;;;;;;1.43;1.43;;;27.40;91.40;;;;;;4969121;28;20423;-68
2023/08/25 16:47:04;;;;;;;1.53;1.33;;;27.40;91.60;;;;;;4948783;28;20176;-68